createdAt,value
2023-08-08T00:01:43.950Z,2.15
2023-08-08T00:04:11.417Z,2.03
2023-08-08T00:06:38.502Z,2.15
2023-08-08T00:09:05.384Z,2.60
2023-08-08T00:11:32.251Z,1.95
2023-08-08T00:13:59.156Z,1.88
2023-08-08T00:16:26.224Z,1.73
2023-08-08T00:18:54.873Z,1.73
2023-08-08T00:21:22.224Z,1.98
2023-08-08T00:23:49.174Z,1.65
2023-08-08T00:26:16.054Z,2.30
2023-08-08T00:28:42.859Z,1.92
2023-08-08T00:31:09.865Z,2.00
2023-08-08T00:33:38.845Z,2.03
2023-08-08T00:36:06.131Z,2.30
2023-08-08T00:38:33.149Z,2.30
2023-08-08T00:41:00.558Z,1.75
2023-08-08T00:43:27.477Z,1.90
2023-08-08T00:45:54.377Z,2.38
2023-08-08T00:48:21.419Z,1.83
2023-08-08T00:50:49.490Z,1.48
2023-08-08T00:53:16.369Z,1.77
2023-08-08T00:55:43.488Z,1.67
2023-08-08T00:58:10.653Z,1.90
2023-08-08T01:00:37.458Z,1.92
2023-08-08T01:03:05.428Z,2.80
2023-08-08T01:05:36.488Z,2.45
2023-08-08T01:08:07.881Z,2.75
2023-08-08T01:10:38.609Z,3.22
2023-08-08T01:13:11.269Z,4.22
2023-08-08T01:15:38.544Z,3.97
2023-08-08T01:18:06.289Z,3.50
2023-08-08T01:20:34.396Z,3.40
2023-08-08T01:23:20.016Z,3.20
2023-08-08T01:25:48.104Z,3.90
2023-08-08T01:28:15.268Z,3.85
2023-08-08T01:30:43.525Z,3.50
2023-08-08T01:33:10.941Z,4.13
2023-08-08T01:35:44.369Z,2.78
2023-08-08T01:38:20.442Z,3.60
2023-08-08T01:43:15.985Z,3.83
2023-08-08T01:45:43.688Z,4.55
2023-08-08T01:48:11.230Z,3.63
2023-08-08T01:50:38.348Z,3.70
2023-08-08T01:53:05.653Z,4.15
2023-08-08T01:55:32.493Z,3.80
2023-08-08T01:57:59.401Z,4.18
2023-08-08T02:00:26.652Z,2.78
2023-08-08T02:02:54.155Z,3.85
2023-08-08T02:05:21.188Z,4.05
2023-08-08T02:07:48.716Z,3.55
2023-08-08T02:10:15.760Z,3.20
2023-08-08T02:12:42.759Z,4.13
2023-08-08T02:15:10.990Z,3.70
2023-08-08T02:17:39.129Z,3.90
2023-08-08T02:20:06.973Z,3.90
2023-08-08T02:22:34.148Z,4.65
2023-08-08T02:25:01.068Z,4.95
2023-08-08T02:27:27.867Z,3.78
2023-08-08T02:29:55.142Z,3.88
2023-08-08T02:32:21.896Z,3.90
2023-08-08T02:34:48.811Z,4.30
2023-08-08T02:37:15.971Z,3.50
2023-08-08T02:39:43.972Z,4.53
2023-08-08T02:42:11.244Z,3.90
2023-08-08T02:44:38.399Z,4.30
2023-08-08T02:47:05.299Z,3.85
2023-08-08T02:49:34.650Z,4.10
2023-08-08T02:52:02.293Z,3.50
2023-08-08T02:54:32.706Z,4.80
2023-08-08T02:56:59.797Z,4.10
2023-08-08T02:59:27.023Z,4.78
2023-08-08T03:01:54.023Z,3.95
2023-08-08T03:04:21.985Z,3.08
2023-08-08T03:06:48.892Z,3.40
2023-08-08T03:09:15.998Z,5.15
2023-08-08T03:11:43.387Z,4.55
2023-08-08T03:14:14.211Z,4.55
2023-08-08T03:16:40.968Z,4.75
2023-08-08T03:19:09.358Z,4.65
2023-08-08T03:21:37.894Z,3.92
2023-08-08T03:24:05.033Z,4.10
2023-08-08T03:26:31.780Z,5.07
2023-08-08T03:28:59.168Z,5.35
2023-08-08T03:31:33.406Z,4.55
2023-08-08T03:34:04.301Z,4.25
2023-08-08T03:36:32.592Z,4.80
2023-08-08T03:38:59.383Z,5.38
2023-08-08T03:41:26.181Z,5.63
2023-08-08T03:43:53.018Z,5.05
2023-08-08T03:46:19.945Z,5.53
2023-08-08T03:48:46.844Z,4.93
2023-08-08T03:51:13.722Z,4.95
2023-08-08T03:53:40.978Z,5.03
2023-08-08T03:56:08.654Z,5.47
2023-08-08T03:58:35.902Z,5.20
2023-08-08T04:01:02.685Z,5.38
2023-08-08T04:03:29.885Z,5.28
2023-08-08T04:05:56.911Z,5.47
2023-08-08T04:08:24.106Z,4.80
2023-08-08T04:10:51.115Z,5.18
2023-08-08T04:13:17.984Z,5.05
2023-08-08T04:15:45.365Z,5.05
2023-08-08T04:18:12.408Z,4.30
2023-08-08T04:20:39.809Z,5.28
2023-08-08T04:23:07.012Z,5.43
2023-08-08T04:25:33.957Z,3.63
2023-08-08T04:28:00.719Z,4.10
2023-08-08T04:30:27.536Z,4.88
2023-08-08T04:32:54.447Z,3.65
2023-08-08T04:35:21.499Z,4.10
2023-08-08T04:37:48.589Z,4.18
2023-08-08T04:40:15.461Z,4.65
2023-08-08T04:42:42.557Z,4.18
2023-08-08T04:45:09.804Z,4.28
2023-08-08T04:47:36.745Z,3.25
2023-08-08T04:50:03.684Z,3.03
2023-08-08T04:52:30.557Z,3.80
2023-08-08T04:54:57.603Z,3.75
2023-08-08T04:57:24.473Z,3.80
2023-08-08T04:59:51.739Z,3.97
2023-08-08T05:02:18.649Z,3.38
2023-08-08T05:04:45.532Z,4.43
2023-08-08T05:07:12.295Z,4.43
2023-08-08T05:09:39.285Z,4.05
2023-08-08T05:12:06.384Z,3.95
2023-08-08T05:14:33.488Z,4.50
2023-08-08T05:17:00.448Z,3.75
2023-08-08T05:19:27.503Z,3.28
2023-08-08T05:21:54.360Z,3.25
2023-08-08T05:24:21.369Z,2.65
2023-08-08T05:26:48.188Z,1.92
2023-08-08T05:29:15.018Z,2.00
2023-08-08T05:31:42.033Z,2.22
2023-08-08T05:34:08.801Z,2.30
2023-08-08T05:36:35.788Z,1.85
2023-08-08T05:39:02.801Z,1.70
2023-08-08T05:41:29.651Z,1.63
2023-08-08T05:43:56.511Z,1.50
2023-08-08T05:46:23.445Z,1.20
2023-08-08T05:48:50.274Z,1.20
2023-08-08T05:51:17.098Z,1.08
2023-08-08T05:53:44.147Z,1.20
2023-08-08T05:56:11.091Z,1.38
2023-08-08T05:58:40.862Z,1.13
2023-08-08T06:01:10.778Z,1.20
2023-08-08T06:03:38.863Z,0.93
2023-08-08T06:06:07.493Z,1.00
2023-08-08T06:08:35.600Z,1.00
2023-08-08T06:11:02.748Z,1.30
2023-08-08T06:13:29.644Z,1.10
2023-08-08T06:15:57.188Z,1.00
2023-08-08T06:18:24.057Z,0.98
2023-08-08T06:20:50.905Z,0.95
2023-08-08T06:23:17.875Z,1.30
2023-08-08T06:25:44.845Z,1.58
2023-08-08T06:28:12.719Z,0.90
2023-08-08T06:30:39.600Z,0.70
2023-08-08T06:33:06.500Z,1.00
2023-08-08T06:35:33.460Z,1.20
2023-08-08T06:38:00.472Z,0.60
2023-08-08T06:40:28.336Z,0.70
2023-08-08T06:42:55.216Z,0.82
2023-08-08T06:45:22.372Z,0.73
2023-08-08T06:47:49.990Z,0.80
2023-08-08T06:50:18.355Z,0.80
2023-08-08T06:52:45.901Z,0.68
2023-08-08T06:55:12.767Z,0.70
2023-08-08T06:57:39.502Z,1.13
2023-08-08T07:00:07.101Z,0.77
2023-08-08T07:02:34.270Z,0.70
2023-08-08T07:05:01.241Z,0.70
2023-08-08T07:07:29.053Z,0.60
2023-08-08T07:09:55.899Z,0.57
2023-08-08T07:12:22.751Z,0.70
2023-08-08T07:14:49.549Z,0.60
2023-08-08T07:17:16.825Z,0.60
2023-08-08T07:19:43.544Z,0.30
2023-08-08T07:22:11.094Z,0.60
2023-08-08T07:24:40.005Z,0.52
2023-08-08T07:27:07.159Z,0.50
2023-08-08T07:29:34.072Z,0.40
2023-08-08T07:32:03.853Z,0.57
2023-08-08T07:34:30.816Z,0.43
2023-08-08T07:36:57.553Z,0.40
2023-08-08T07:39:24.370Z,0.50
2023-08-08T07:41:51.110Z,0.40
2023-08-08T07:44:18.025Z,0.50
2023-08-08T07:46:44.822Z,0.35
2023-08-08T07:49:11.750Z,0.30
2023-08-08T07:51:38.744Z,0.40
2023-08-08T07:54:09.837Z,0.30
2023-08-08T07:56:36.854Z,0.45
2023-08-08T07:59:04.491Z,0.40
2023-08-08T08:01:31.477Z,0.50
2023-08-08T08:03:58.347Z,0.22
2023-08-08T08:06:25.348Z,0.20
2023-08-08T08:08:52.290Z,0.50
2023-08-08T08:11:19.199Z,0.68
2023-08-08T08:13:45.995Z,0.38
2023-08-08T08:16:12.907Z,0.40
2023-08-08T08:18:39.732Z,0.30
2023-08-08T08:21:06.663Z,0.35
2023-08-08T08:23:33.569Z,0.40
2023-08-08T08:26:00.501Z,0.30
2023-08-08T08:28:28.024Z,0.40
2023-08-08T08:30:54.886Z,0.40
2023-08-08T08:33:21.689Z,0.47
2023-08-08T08:35:48.779Z,0.30
2023-08-08T08:38:15.975Z,0.50
2023-08-08T08:40:45.120Z,0.40
2023-08-08T08:43:12.294Z,0.40
2023-08-08T08:45:42.611Z,0.30
2023-08-08T08:48:13.532Z,0.20
2023-08-08T08:50:41.076Z,0.40
2023-08-08T08:53:08.122Z,0.40
2023-08-08T08:55:34.868Z,0.35
2023-08-08T08:58:02.570Z,0.55
2023-08-08T09:00:29.916Z,0.50
2023-08-08T09:02:57.302Z,0.50
2023-08-08T09:05:25.849Z,0.50
2023-08-08T09:07:52.732Z,0.65
2023-08-08T09:10:20.225Z,0.38
2023-08-08T09:12:47.889Z,0.60
2023-08-08T09:15:14.833Z,0.40
2023-08-08T09:17:48.462Z,0.50
2023-08-08T09:20:17.946Z,0.50
2023-08-08T09:22:45.052Z,0.30
2023-08-08T09:25:11.820Z,0.30
2023-08-08T09:27:39.130Z,0.30
2023-08-08T09:30:06.362Z,0.52
2023-08-08T09:32:33.676Z,0.40
2023-08-08T09:35:01.009Z,0.50
2023-08-08T09:37:30.911Z,0.77
2023-08-08T09:40:01.347Z,0.40
2023-08-08T09:42:28.651Z,0.50
2023-08-08T09:44:57.045Z,0.40
2023-08-08T09:47:24.321Z,0.57
2023-08-08T09:49:51.593Z,0.30
2023-08-08T09:52:19.238Z,0.32
2023-08-08T09:54:46.249Z,0.50
2023-08-08T09:57:13.400Z,0.40
2023-08-08T09:59:40.926Z,0.40
2023-08-08T10:02:11.031Z,0.50
2023-08-08T10:04:37.905Z,0.70
2023-08-08T10:07:05.274Z,0.38
2023-08-08T10:09:32.493Z,0.50
2023-08-08T10:12:00.002Z,0.50
2023-08-08T10:14:31.762Z,0.57
2023-08-08T10:16:58.537Z,0.50
2023-08-08T10:19:25.524Z,0.30
2023-08-08T10:21:58.183Z,0.40
2023-08-08T10:24:25.335Z,0.60
2023-08-08T10:26:53.051Z,0.32
2023-08-08T10:29:20.515Z,0.50
2023-08-08T10:32:07.071Z,0.47
2023-08-08T10:34:47.985Z,0.55
2023-08-08T10:37:15.916Z,0.40
2023-08-08T10:39:55.763Z,0.40
2023-08-08T10:42:23.839Z,0.40
2023-08-08T10:44:55.683Z,0.50
2023-08-08T10:47:36.135Z,0.30
2023-08-08T10:50:06.105Z,0.30
2023-08-08T10:52:39.382Z,0.20
2023-08-08T10:55:06.534Z,0.40
2023-08-08T10:57:33.660Z,0.30
2023-08-08T11:00:17.386Z,0.20
2023-08-08T11:02:45.415Z,0.40
2023-08-08T11:05:13.914Z,0.32
2023-08-08T11:07:40.970Z,0.40
2023-08-08T11:10:08.045Z,0.32
2023-08-08T11:12:34.817Z,0.40
2023-08-08T11:15:01.951Z,0.40
2023-08-08T11:17:30.690Z,0.30
2023-08-08T11:19:57.780Z,0.40
2023-08-08T11:22:25.000Z,0.40
2023-08-08T11:24:52.999Z,0.30
2023-08-08T11:29:51.578Z,0.30
2023-08-08T11:32:18.360Z,0.32
2023-08-08T11:34:47.308Z,0.20
2023-08-08T11:37:16.389Z,0.20
2023-08-08T11:39:43.423Z,0.40
2023-08-08T11:42:10.683Z,0.50
2023-08-08T11:44:37.968Z,0.40
2023-08-08T11:47:05.933Z,0.32
2023-08-08T11:49:41.214Z,0.38
2023-08-08T11:52:09.249Z,0.20
2023-08-08T11:54:38.089Z,0.40
2023-08-08T11:57:04.961Z,0.30
2023-08-08T11:59:32.335Z,0.57
2023-08-08T12:01:59.907Z,0.40
2023-08-08T12:04:28.005Z,0.43
2023-08-08T12:07:04.643Z,0.50
2023-08-08T12:09:34.915Z,0.50
2023-08-08T12:12:02.371Z,0.57
2023-08-08T12:14:30.434Z,0.40
2023-08-08T12:16:57.582Z,0.60
2023-08-08T12:19:25.675Z,0.50
2023-08-08T12:21:52.606Z,0.60
2023-08-08T12:24:19.979Z,0.63
2023-08-08T12:26:47.122Z,0.60
2023-08-08T12:29:14.307Z,0.60
2023-08-08T12:31:41.287Z,1.00
2023-08-08T12:34:08.079Z,0.93
2023-08-08T12:36:35.035Z,0.50
2023-08-08T12:39:01.896Z,0.52
2023-08-08T12:41:30.770Z,0.63
2023-08-08T12:43:57.524Z,0.50
2023-08-08T12:46:24.440Z,0.50
2023-08-08T12:48:51.366Z,0.80
2023-08-08T12:51:18.271Z,0.60
2023-08-08T12:53:45.250Z,0.40
2023-08-08T12:56:12.128Z,0.60
2023-08-08T12:58:40.202Z,0.45
2023-08-08T13:01:06.988Z,0.47
2023-08-08T13:03:35.143Z,0.52
2023-08-08T13:06:02.154Z,0.52
2023-08-08T13:08:29.050Z,0.47
2023-08-08T13:10:55.808Z,0.43
2023-08-08T13:13:26.152Z,0.30
2023-08-08T13:15:53.123Z,0.40
2023-08-08T13:18:20.144Z,0.52
2023-08-08T13:20:47.334Z,0.35
2023-08-08T13:23:14.675Z,0.47
2023-08-08T13:25:42.203Z,1.15
2023-08-08T13:28:09.550Z,0.60
2023-08-08T13:30:36.808Z,0.50
2023-08-08T13:33:04.608Z,0.52
2023-08-08T13:35:31.740Z,0.35
2023-08-08T13:37:58.812Z,0.50
2023-08-08T13:40:27.582Z,0.60
2023-08-08T13:42:54.639Z,0.40
2023-08-08T13:45:22.001Z,0.60
2023-08-08T13:47:48.837Z,0.60
2023-08-08T13:50:15.818Z,0.60
2023-08-08T13:52:42.943Z,0.60
2023-08-08T13:55:10.032Z,0.50
2023-08-08T13:57:36.924Z,0.50
2023-08-08T14:00:04.667Z,0.43
2023-08-08T14:02:34.666Z,0.60
2023-08-08T14:05:01.702Z,0.32
2023-08-08T14:07:29.131Z,0.60
2023-08-08T14:09:55.986Z,0.60
2023-08-08T14:12:23.085Z,0.60
2023-08-08T14:14:49.821Z,0.55
2023-08-08T14:17:16.624Z,0.32
2023-08-08T14:19:43.421Z,0.70
2023-08-08T14:22:11.565Z,0.60
2023-08-08T14:24:38.380Z,0.45
2023-08-08T14:27:05.333Z,0.82
2023-08-08T14:29:32.257Z,0.70
2023-08-08T14:32:00.844Z,0.40
2023-08-08T14:34:32.017Z,0.80
2023-08-08T14:37:02.193Z,0.60
2023-08-08T14:39:29.049Z,0.40
2023-08-08T14:41:56.545Z,0.40
2023-08-08T14:44:23.496Z,0.52
2023-08-08T14:46:50.229Z,0.90
2023-08-08T14:49:18.286Z,0.80
2023-08-08T14:51:45.194Z,0.60
2023-08-08T14:54:12.030Z,0.90
2023-08-08T14:56:38.804Z,0.63
2023-08-08T14:59:05.875Z,0.55
2023-08-08T15:01:32.794Z,0.70
2023-08-08T15:03:59.789Z,0.80
2023-08-08T15:06:27.188Z,0.82
2023-08-08T15:08:54.057Z,0.60
2023-08-08T15:11:20.834Z,0.77
2023-08-08T15:13:47.590Z,0.60
2023-08-08T15:16:15.985Z,0.60
2023-08-08T15:18:43.159Z,0.70
2023-08-08T15:21:10.224Z,0.70
2023-08-08T15:23:37.044Z,0.70
2023-08-08T15:26:03.926Z,0.55
2023-08-08T15:28:30.696Z,0.70
2023-08-08T15:30:57.541Z,0.82
2023-08-08T15:33:24.408Z,0.60
2023-08-08T15:35:51.487Z,0.55
2023-08-08T15:38:18.367Z,0.63
2023-08-08T15:40:45.441Z,0.60
2023-08-08T15:43:12.491Z,0.63
2023-08-08T15:45:39.449Z,0.73
2023-08-08T15:48:06.587Z,0.50
2023-08-08T15:50:33.508Z,0.65
2023-08-08T15:53:02.446Z,0.77
2023-08-08T15:55:29.471Z,0.70
2023-08-08T15:57:56.347Z,0.85
2023-08-08T16:00:23.305Z,0.80
2023-08-08T16:02:50.556Z,0.85
2023-08-08T16:05:17.392Z,0.90
2023-08-08T16:07:44.195Z,0.90
2023-08-08T16:10:12.176Z,0.70
2023-08-08T16:12:39.235Z,0.70
2023-08-08T16:15:06.261Z,0.80
2023-08-08T16:17:33.134Z,0.88
2023-08-08T16:20:00.793Z,0.77
2023-08-08T16:22:27.625Z,1.30
2023-08-08T16:24:54.354Z,0.85
2023-08-08T16:27:21.494Z,1.15
2023-08-08T16:29:48.583Z,1.00
2023-08-08T16:32:15.462Z,0.80
2023-08-08T16:34:42.297Z,1.10
2023-08-08T16:37:09.189Z,1.00
2023-08-08T16:39:36.220Z,0.80
2023-08-08T16:42:04.106Z,0.90
2023-08-08T16:44:31.996Z,1.17
2023-08-08T16:46:58.848Z,1.10
2023-08-08T16:49:25.874Z,0.93
2023-08-08T16:51:52.720Z,1.20
2023-08-08T16:54:19.491Z,0.95
2023-08-08T16:56:46.306Z,1.30
2023-08-08T16:59:13.317Z,1.23
2023-08-08T17:01:42.725Z,1.27
2023-08-08T17:04:11.863Z,0.80
2023-08-08T17:06:39.915Z,0.95
2023-08-08T17:09:07.340Z,1.00
2023-08-08T17:11:34.822Z,1.15
2023-08-08T17:14:01.654Z,0.75
2023-08-08T17:16:28.744Z,0.95
2023-08-08T17:18:55.939Z,1.00
2023-08-08T17:21:22.950Z,1.08
2023-08-08T17:23:49.786Z,0.90
2023-08-08T17:26:16.801Z,0.98
2023-08-08T17:28:43.643Z,1.05
2023-08-08T17:31:10.758Z,1.13
2023-08-08T17:33:37.839Z,1.02
2023-08-08T17:36:04.955Z,1.00
2023-08-08T17:38:31.783Z,0.90
2023-08-08T17:40:58.870Z,0.63
2023-08-08T17:43:28.609Z,1.02
2023-08-08T17:45:57.025Z,0.90
2023-08-08T17:48:24.888Z,0.80
2023-08-08T17:50:54.328Z,0.68
2023-08-08T17:53:21.515Z,0.70
2023-08-08T17:55:48.488Z,0.80
2023-08-08T17:58:15.326Z,0.77
2023-08-08T18:00:42.486Z,0.90
2023-08-08T18:03:09.737Z,0.93
2023-08-08T18:05:36.570Z,0.65
2023-08-08T18:08:03.548Z,0.82
2023-08-08T18:10:32.645Z,0.90
2023-08-08T18:12:59.633Z,0.80
2023-08-08T18:15:26.870Z,0.90
2023-08-08T18:17:53.902Z,0.98
2023-08-08T18:20:20.930Z,1.20
2023-08-08T18:22:48.915Z,1.17
2023-08-08T18:25:16.124Z,1.20
2023-08-08T18:27:42.984Z,1.40
2023-08-08T18:30:10.699Z,1.10
2023-08-08T18:32:37.674Z,1.40
2023-08-08T18:35:04.816Z,1.30
2023-08-08T18:37:31.680Z,1.77
2023-08-08T18:39:58.522Z,1.40
2023-08-08T18:42:25.406Z,1.30
2023-08-08T18:44:52.387Z,1.50
2023-08-08T18:47:19.477Z,1.20
2023-08-08T18:49:46.456Z,1.00
2023-08-08T18:52:13.580Z,1.52
2023-08-08T18:54:40.798Z,1.00
2023-08-08T18:57:07.614Z,1.30
2023-08-08T18:59:34.543Z,1.02
2023-08-08T19:02:01.708Z,1.10
2023-08-08T19:04:28.788Z,1.10
2023-08-08T19:06:55.732Z,1.50
2023-08-08T19:09:22.735Z,1.20
2023-08-08T19:11:49.673Z,1.10
2023-08-08T19:14:16.431Z,1.40
2023-08-08T19:16:43.252Z,1.42
2023-08-08T19:19:10.252Z,2.50
2023-08-08T19:21:37.820Z,1.40
2023-08-08T19:24:04.914Z,0.90
2023-08-08T19:26:32.398Z,0.80
2023-08-08T19:29:01.463Z,0.98
2023-08-08T19:31:28.262Z,1.50
2023-08-08T19:34:05.504Z,1.55
2023-08-08T19:36:33.657Z,1.20
2023-08-08T19:39:00.513Z,14.75
2023-08-08T19:41:27.281Z,3.83
2023-08-08T19:43:54.256Z,1.50
2023-08-08T19:46:21.766Z,1.55
2023-08-08T19:48:49.818Z,9.00
2023-08-08T19:51:16.948Z,12.75
2023-08-08T19:53:44.219Z,4.85
2023-08-08T19:56:11.315Z,5.70
2023-08-08T19:58:38.320Z,5.05
2023-08-08T20:01:05.401Z,1.20
2023-08-08T20:03:33.432Z,1.20
2023-08-08T20:06:00.655Z,6.88
2023-08-08T20:08:27.454Z,3.63
2023-08-08T20:10:54.416Z,1.85
2023-08-08T20:13:21.680Z,1.77
2023-08-08T20:15:48.743Z,2.10
2023-08-08T20:18:15.597Z,0.70
2023-08-08T20:20:42.391Z,1.58
2023-08-08T20:23:09.821Z,1.70
2023-08-08T20:25:39.343Z,1.10
2023-08-08T20:28:06.543Z,0.85
2023-08-08T20:30:33.947Z,0.73
2023-08-08T20:33:01.693Z,0.90
2023-08-08T20:35:29.081Z,0.80
2023-08-08T20:37:55.934Z,0.75
2023-08-08T20:40:23.046Z,0.90
2023-08-08T20:42:49.892Z,1.10
2023-08-08T20:45:17.302Z,1.02
2023-08-08T20:47:44.406Z,1.10
2023-08-08T20:50:11.753Z,1.17
2023-08-08T20:52:38.721Z,0.90
2023-08-08T20:55:06.281Z,0.80
2023-08-08T20:57:33.208Z,0.80
2023-08-08T21:00:00.076Z,0.90
2023-08-08T21:02:27.095Z,0.75
2023-08-08T21:04:53.932Z,0.85
2023-08-08T21:07:20.960Z,1.13
2023-08-08T21:09:47.868Z,1.08
2023-08-08T21:12:15.535Z,0.90
2023-08-08T21:14:42.809Z,1.00
2023-08-08T21:17:10.366Z,0.93
2023-08-08T21:19:37.293Z,1.40
2023-08-08T21:22:04.282Z,1.30
2023-08-08T21:24:32.519Z,1.40
2023-08-08T21:26:59.562Z,1.10
2023-08-08T21:29:26.534Z,1.48
2023-08-08T21:31:53.405Z,1.55
2023-08-08T21:34:20.410Z,1.42
2023-08-08T21:36:47.289Z,1.23
2023-08-08T21:39:14.209Z,0.82
2023-08-08T21:41:41.161Z,1.08
2023-08-08T21:44:07.984Z,1.10
2023-08-08T21:46:34.803Z,0.95
2023-08-08T21:49:02.685Z,1.20
2023-08-08T21:51:29.544Z,1.92
2023-08-08T21:53:56.617Z,1.48
2023-08-08T21:56:23.422Z,1.42
2023-08-08T21:58:50.320Z,1.92
2023-08-08T22:01:17.245Z,2.13
2023-08-08T22:03:45.504Z,1.30
2023-08-08T22:06:12.724Z,1.73
2023-08-08T22:08:39.596Z,1.92
2023-08-08T22:11:06.483Z,1.73
2023-08-08T22:13:33.372Z,2.20
2023-08-08T22:16:02.075Z,1.52
2023-08-08T22:18:29.125Z,1.60
2023-08-08T22:20:55.996Z,1.88
2023-08-08T22:23:22.960Z,1.70
2023-08-08T22:25:50.850Z,1.70
2023-08-08T22:28:18.689Z,1.48
2023-08-08T22:30:45.821Z,2.17
2023-08-08T22:33:12.954Z,1.88
2023-08-08T22:35:39.893Z,1.80
2023-08-08T22:38:06.862Z,1.85
2023-08-08T22:40:33.753Z,1.90
2023-08-08T22:43:00.548Z,2.10
2023-08-08T22:45:28.849Z,1.65
2023-08-08T22:47:55.996Z,1.80
2023-08-08T22:50:24.695Z,2.13
2023-08-08T22:52:51.668Z,1.42
2023-08-08T22:55:20.551Z,1.60
2023-08-08T22:57:47.472Z,1.42
2023-08-08T23:00:14.562Z,1.73
2023-08-08T23:02:41.639Z,1.85
2023-08-08T23:05:09.269Z,1.98
2023-08-08T23:07:36.291Z,1.90
2023-08-08T23:10:06.725Z,1.75
2023-08-08T23:12:33.755Z,1.77
2023-08-08T23:15:00.778Z,1.80
2023-08-08T23:17:28.238Z,1.88
2023-08-08T23:19:55.402Z,1.85
2023-08-08T23:22:22.273Z,1.98
2023-08-08T23:24:49.424Z,1.80
2023-08-08T23:27:16.409Z,1.67
2023-08-08T23:29:43.730Z,1.48
2023-08-08T23:32:10.846Z,1.80
2023-08-08T23:34:37.914Z,1.90
2023-08-08T23:37:07.581Z,2.20
2023-08-08T23:39:36.478Z,2.00
2023-08-08T23:42:05.323Z,2.00
2023-08-08T23:44:32.264Z,2.15
2023-08-08T23:46:59.225Z,1.80
2023-08-08T23:49:26.201Z,2.08
2023-08-08T23:51:52.983Z,2.22
2023-08-08T23:54:19.975Z,2.03
2023-08-08T23:56:47.206Z,2.17
2023-08-08T23:59:14.121Z,2.00
